createdAt,value
2022-11-17T00:00:54.248Z,11.80
2022-11-17T00:03:24.481Z,11.50
2022-11-17T00:05:57.228Z,12.00
2022-11-17T00:08:27.397Z,12.00
2022-11-17T00:10:57.559Z,11.70
2022-11-17T00:13:40.101Z,11.20
2022-11-17T00:16:10.711Z,11.80
2022-11-17T00:18:53.240Z,12.00
2022-11-17T00:21:27.236Z,11.50
2022-11-17T00:23:57.769Z,11.70
2022-11-17T00:26:29.903Z,11.70
2022-11-17T00:29:02.163Z,11.90
2022-11-17T00:31:46.616Z,11.90
2022-11-17T00:34:18.337Z,11.90
2022-11-17T00:36:56.838Z,12.00
2022-11-17T00:39:27.344Z,12.00
2022-11-17T00:41:57.618Z,11.90
2022-11-17T00:44:31.855Z,12.10
2022-11-17T00:47:02.015Z,12.60
2022-11-17T00:49:32.144Z,12.30
2022-11-17T00:52:04.812Z,12.40
2022-11-17T00:54:36.078Z,12.30
2022-11-17T00:57:06.315Z,11.90
2022-11-17T00:59:36.774Z,12.30
2022-11-17T01:02:07.013Z,12.30
2022-11-17T01:04:37.275Z,12.40
2022-11-17T01:07:10.076Z,12.40
2022-11-17T01:09:40.168Z,12.40
2022-11-17T01:12:10.501Z,12.40
2022-11-17T01:14:40.930Z,12.50
2022-11-17T01:17:11.076Z,11.30
2022-11-17T01:19:41.249Z,12.30
2022-11-17T01:22:13.898Z,12.10
2022-11-17T01:24:45.542Z,11.40
2022-11-17T01:27:15.666Z,12.50
2022-11-17T01:29:45.865Z,12.40
2022-11-17T01:32:15.980Z,12.40
2022-11-17T01:34:47.550Z,11.30
2022-11-17T01:37:23.104Z,12.40
2022-11-17T01:39:53.956Z,12.30
2022-11-17T01:42:25.899Z,12.30
2022-11-17T01:45:20.626Z,12.20
2022-11-17T01:47:53.294Z,12.20
2022-11-17T01:50:32.237Z,12.20
2022-11-17T01:53:10.004Z,12.20
2022-11-17T01:55:43.655Z,12.20
2022-11-17T01:58:17.687Z,12.20
2022-11-17T02:00:47.946Z,12.20
2022-11-17T02:03:18.135Z,12.20
2022-11-17T02:05:53.316Z,12.20
2022-11-17T02:08:28.231Z,11.90
2022-11-17T02:10:58.638Z,12.60
2022-11-17T02:13:29.440Z,11.60
2022-11-17T02:15:59.662Z,12.10
2022-11-17T02:18:30.122Z,12.20
2022-11-17T02:21:35.442Z,12.10
2022-11-17T02:24:38.126Z,12.10
2022-11-17T02:27:39.070Z,12.20
2022-11-17T02:30:10.738Z,12.10
2022-11-17T02:32:48.633Z,12.10
2022-11-17T02:35:24.471Z,12.60
2022-11-17T02:38:02.928Z,12.50
2022-11-17T02:40:36.849Z,12.10
2022-11-17T02:43:26.169Z,12.30
2022-11-17T02:46:01.916Z,11.10
2022-11-17T02:48:36.274Z,12.20
2022-11-17T02:51:08.238Z,12.50
2022-11-17T02:53:40.047Z,12.20
2022-11-17T02:56:10.909Z,12.30
2022-11-17T02:58:43.647Z,12.30
2022-11-17T03:01:38.086Z,12.30
2022-11-17T03:04:25.355Z,12.50
2022-11-17T03:07:07.037Z,12.50
2022-11-17T03:09:48.641Z,12.40
2022-11-17T03:12:26.209Z,12.40
2022-11-17T03:15:05.145Z,12.20
2022-11-17T03:17:42.792Z,12.20
2022-11-17T03:20:16.189Z,12.20
2022-11-17T03:22:52.243Z,12.20
2022-11-17T03:25:25.152Z,12.20
2022-11-17T03:27:59.501Z,12.20
2022-11-17T03:30:37.448Z,12.70
2022-11-17T03:33:15.307Z,12.20
2022-11-17T03:35:51.042Z,12.70
2022-11-17T03:38:25.524Z,12.30
2022-11-17T03:41:00.937Z,10.50
2022-11-17T03:43:34.133Z,12.20
2022-11-17T03:46:10.912Z,12.20
2022-11-17T03:48:45.947Z,12.30
2022-11-17T03:51:19.274Z,12.40
2022-11-17T03:53:51.468Z,12.30
2022-11-17T03:56:34.086Z,12.20
2022-11-17T03:59:08.552Z,11.80
2022-11-17T04:01:41.555Z,12.20
2022-11-17T04:04:17.374Z,12.60
2022-11-17T04:06:47.470Z,12.20
2022-11-17T04:09:22.900Z,12.30
2022-11-17T04:12:06.840Z,12.70
2022-11-17T04:14:49.367Z,12.50
2022-11-17T04:17:22.121Z,12.50
2022-11-17T04:19:52.132Z,12.60
2022-11-17T04:22:22.242Z,12.50
2022-11-17T04:24:52.363Z,12.50
2022-11-17T04:27:34.775Z,12.40
2022-11-17T04:30:04.899Z,12.50
2022-11-17T04:32:37.670Z,12.50
2022-11-17T04:35:08.413Z,12.60
2022-11-17T04:37:38.502Z,12.70
2022-11-17T04:40:10.621Z,12.60
2022-11-17T04:42:37.996Z,12.90
2022-11-17T04:45:09.220Z,12.60
2022-11-17T04:47:42.088Z,12.60
2022-11-17T04:50:12.943Z,12.50
2022-11-17T04:52:42.944Z,12.60
2022-11-17T04:55:13.422Z,12.50
2022-11-17T04:57:43.939Z,12.50
2022-11-17T05:00:15.584Z,12.40
2022-11-17T05:02:48.164Z,12.30
2022-11-17T05:05:18.506Z,13.00
2022-11-17T05:07:48.567Z,12.00
2022-11-17T05:10:39.378Z,11.60
2022-11-17T05:13:21.524Z,12.30
2022-11-17T05:16:04.085Z,12.10
2022-11-17T05:18:36.786Z,12.20
2022-11-17T05:21:07.275Z,12.30
2022-11-17T05:23:49.996Z,12.30
2022-11-17T05:26:20.069Z,12.10
2022-11-17T05:28:50.065Z,12.30
2022-11-17T05:31:20.497Z,12.00
2022-11-17T05:33:53.411Z,11.90
2022-11-17T05:36:24.556Z,11.90
2022-11-17T05:38:54.525Z,12.00
2022-11-17T05:41:25.624Z,11.90
2022-11-17T05:43:55.304Z,11.90
2022-11-17T05:46:25.824Z,11.60
2022-11-17T05:48:58.345Z,11.70
2022-11-17T05:51:28.595Z,11.70
2022-11-17T05:53:58.520Z,11.80
2022-11-17T05:56:36.526Z,11.50
2022-11-17T05:59:14.960Z,12.80
2022-11-17T06:01:49.840Z,11.40
2022-11-17T06:04:23.390Z,11.70
2022-11-17T06:06:54.161Z,11.10
2022-11-17T06:09:24.192Z,12.70
2022-11-17T06:11:54.224Z,11.30
2022-11-17T06:14:24.238Z,12.00
2022-11-17T06:16:58.995Z,11.20
2022-11-17T06:19:37.977Z,11.80
2022-11-17T06:22:12.953Z,12.40
2022-11-17T06:24:44.777Z,12.10
2022-11-17T06:27:15.055Z,11.60
2022-11-17T06:32:16.703Z,11.50
2022-11-17T06:34:55.722Z,12.20
2022-11-17T06:39:56.923Z,11.70
2022-11-17T06:42:39.253Z,11.80
2022-11-17T06:45:10.689Z,11.90
2022-11-17T06:50:14.109Z,11.40
2022-11-17T06:52:44.215Z,11.90
2022-11-17T06:55:14.272Z,12.00
2022-11-17T07:00:22.342Z,11.60
2022-11-17T07:02:52.448Z,10.90
2022-11-17T07:05:25.148Z,11.60
2022-11-17T07:07:55.210Z,12.00
2022-11-17T07:10:25.249Z,11.90
2022-11-17T07:12:55.461Z,11.60
2022-11-17T07:15:25.699Z,11.30
2022-11-17T07:17:56.061Z,11.60
2022-11-17T07:20:28.783Z,11.70
2022-11-17T07:23:02.665Z,11.60
2022-11-17T07:25:32.761Z,11.70
2022-11-17T07:28:03.396Z,11.70
2022-11-17T07:30:34.152Z,11.60
2022-11-17T07:33:04.418Z,12.20
2022-11-17T07:35:40.214Z,11.70
2022-11-17T07:38:10.330Z,11.30
2022-11-17T07:40:40.493Z,11.50
2022-11-17T07:45:40.906Z,11.00
2022-11-17T07:48:11.061Z,12.50
2022-11-17T07:50:43.736Z,10.90
2022-11-17T07:53:13.827Z,11.10
2022-11-17T07:55:44.048Z,11.10
2022-11-17T07:58:14.228Z,11.50
2022-11-17T08:00:44.494Z,11.70
2022-11-17T08:03:14.755Z,10.80
2022-11-17T08:05:47.584Z,11.60
2022-11-17T08:08:17.876Z,11.60
2022-11-17T08:10:47.964Z,12.50
2022-11-17T08:13:18.193Z,11.40
2022-11-17T08:15:48.267Z,11.70
2022-11-17T08:18:18.341Z,12.30
2022-11-17T08:20:51.073Z,11.80
2022-11-17T08:25:57.895Z,10.30
2022-11-17T08:28:28.018Z,11.90
2022-11-17T08:33:29.218Z,11.90
2022-11-17T08:36:03.601Z,11.40
2022-11-17T08:38:34.580Z,11.00
2022-11-17T08:41:06.702Z,11.80
2022-11-17T08:48:37.990Z,11.00
2022-11-17T08:51:12.239Z,11.20
2022-11-17T08:53:43.115Z,11.60
2022-11-17T08:56:15.227Z,11.60
2022-11-17T08:58:46.711Z,11.50
2022-11-17T09:01:18.582Z,12.40
2022-11-17T09:03:50.307Z,11.60
2022-11-17T09:06:22.951Z,10.80
2022-11-17T09:08:55.587Z,11.60
2022-11-17T09:11:26.213Z,11.30
2022-11-17T09:13:56.373Z,11.60
2022-11-17T09:16:26.866Z,11.80
2022-11-17T09:18:58.674Z,11.60
2022-11-17T09:21:32.934Z,12.20
2022-11-17T09:24:03.005Z,11.50
2022-11-17T09:26:33.170Z,11.80
2022-11-17T09:29:05.002Z,11.70
2022-11-17T09:31:35.062Z,11.50
2022-11-17T09:34:06.078Z,11.90
2022-11-17T09:36:38.707Z,11.90
2022-11-17T09:39:09.043Z,11.50
2022-11-17T09:41:52.805Z,11.90
2022-11-17T09:44:30.688Z,11.90
2022-11-17T09:47:08.950Z,11.90
2022-11-17T09:49:52.308Z,11.90
2022-11-17T09:52:34.615Z,11.90
2022-11-17T09:55:05.783Z,11.90
2022-11-17T09:57:41.889Z,12.00
2022-11-17T10:00:17.859Z,12.40
2022-11-17T10:02:48.876Z,12.00
2022-11-17T10:05:22.900Z,12.00
2022-11-17T10:08:00.042Z,12.10
2022-11-17T10:10:37.952Z,11.00
2022-11-17T10:13:16.281Z,12.00
2022-11-17T10:15:50.530Z,12.00
2022-11-17T10:18:21.003Z,12.10
2022-11-17T10:20:51.267Z,11.60
2022-11-17T10:23:25.433Z,12.10
2022-11-17T10:26:01.044Z,12.10
2022-11-17T10:28:33.594Z,12.10
2022-11-17T10:31:06.131Z,12.00
2022-11-17T10:33:38.424Z,12.10
2022-11-17T10:36:16.336Z,11.30
2022-11-17T10:38:51.383Z,12.40
2022-11-17T10:41:24.269Z,12.30
2022-11-17T10:44:02.487Z,12.60
2022-11-17T10:46:43.222Z,12.10
2022-11-17T10:49:28.143Z,12.10
2022-11-17T10:52:08.571Z,12.20
2022-11-17T10:54:41.642Z,12.30
2022-11-17T10:57:17.795Z,12.30
2022-11-17T10:59:56.485Z,11.30
2022-11-17T11:02:32.915Z,11.80
2022-11-17T11:05:10.645Z,12.50
2022-11-17T11:07:40.982Z,12.20
2022-11-17T11:10:19.304Z,12.40
2022-11-17T11:12:53.428Z,12.60
2022-11-17T11:15:25.680Z,12.30
2022-11-17T11:17:55.875Z,12.80
2022-11-17T11:20:42.356Z,12.30
2022-11-17T11:23:21.044Z,11.50
2022-11-17T11:25:59.596Z,12.40
2022-11-17T11:28:48.014Z,12.40
2022-11-17T11:31:27.803Z,12.30
2022-11-17T11:34:01.419Z,12.30
2022-11-17T11:36:43.352Z,12.70
2022-11-17T11:39:29.131Z,12.90
2022-11-17T11:42:29.553Z,11.40
2022-11-17T11:45:15.041Z,12.40
2022-11-17T11:48:01.323Z,12.50
2022-11-17T11:50:41.625Z,13.00
2022-11-17T11:53:18.271Z,13.20
2022-11-17T11:55:54.543Z,12.10
2022-11-17T11:58:28.091Z,12.60
2022-11-17T12:01:03.172Z,12.70
2022-11-17T12:03:38.323Z,12.70
2022-11-17T12:06:27.215Z,12.60
2022-11-17T12:09:12.261Z,13.20
2022-11-17T12:11:56.497Z,12.70
2022-11-17T12:14:29.584Z,12.70
2022-11-17T12:17:09.464Z,11.80
2022-11-17T12:19:57.349Z,13.60
2022-11-17T12:22:55.867Z,12.20
2022-11-17T12:25:31.525Z,13.00
2022-11-17T12:28:01.674Z,13.00
2022-11-17T12:31:08.276Z,13.00
2022-11-17T12:34:10.252Z,13.00
2022-11-17T12:36:40.709Z,13.10
2022-11-17T12:39:46.766Z,13.10
2022-11-17T12:42:16.984Z,13.30
2022-11-17T12:45:03.108Z,13.30
2022-11-17T12:47:37.156Z,13.30
2022-11-17T12:50:37.488Z,13.50
2022-11-17T12:53:37.496Z,13.20
2022-11-17T12:56:43.794Z,13.40
2022-11-17T12:59:42.114Z,14.60
2022-11-17T13:02:33.647Z,14.50
2022-11-17T13:05:10.680Z,13.60
2022-11-17T13:07:40.987Z,13.30
2022-11-17T13:10:26.892Z,13.80
2022-11-17T13:13:12.539Z,13.80
2022-11-17T13:15:44.128Z,13.20
2022-11-17T13:18:21.894Z,13.60
2022-11-17T13:20:54.733Z,13.50
2022-11-17T13:23:26.225Z,13.10
2022-11-17T13:26:12.324Z,14.60
2022-11-17T13:28:42.475Z,13.50
2022-11-17T13:48:33.513Z,13.80
2022-11-17T13:51:25.847Z,13.70
2022-11-17T13:53:59.340Z,13.50
2022-11-17T13:56:36.893Z,13.40
2022-11-17T13:59:20.034Z,13.40
2022-11-17T14:01:50.351Z,13.40
2022-11-17T14:04:25.438Z,13.40
2022-11-17T14:06:57.856Z,13.50
2022-11-17T14:09:29.083Z,13.60
2022-11-17T14:11:59.336Z,13.50
2022-11-17T14:14:37.224Z,13.50
2022-11-17T14:17:15.814Z,13.50
2022-11-17T14:19:48.977Z,13.30
2022-11-17T14:22:31.699Z,13.40
2022-11-17T14:25:02.601Z,13.50
2022-11-17T14:27:42.147Z,13.50
2022-11-17T14:30:17.225Z,13.50
2022-11-17T14:32:47.399Z,13.50
2022-11-17T14:35:20.426Z,13.50
2022-11-17T14:37:50.641Z,13.50
2022-11-17T14:40:30.856Z,13.50
2022-11-17T14:43:00.907Z,13.50
2022-11-17T14:45:31.051Z,13.70
2022-11-17T14:48:02.376Z,13.60
2022-11-17T14:50:35.223Z,13.70
2022-11-17T14:53:05.252Z,13.60
2022-11-17T14:55:35.566Z,13.70
2022-11-17T14:58:05.806Z,13.70
2022-11-17T15:00:36.732Z,13.80
2022-11-17T15:03:07.457Z,13.70
2022-11-17T15:05:45.958Z,13.60
2022-11-17T15:08:19.094Z,13.50
2022-11-17T15:10:51.418Z,13.60
2022-11-17T15:13:21.490Z,13.60
2022-11-17T15:15:52.689Z,13.70
2022-11-17T15:18:22.800Z,13.40
2022-11-17T15:21:03.303Z,13.50
2022-11-17T15:23:34.014Z,13.60
2022-11-17T15:26:07.647Z,13.40
2022-11-17T15:28:38.014Z,13.50
2022-11-17T15:31:13.030Z,13.50
2022-11-17T15:33:43.597Z,13.50
2022-11-17T15:36:18.450Z,13.60
2022-11-17T15:38:48.945Z,13.70
2022-11-17T15:41:19.672Z,13.70
2022-11-17T15:43:49.753Z,13.60
2022-11-17T15:46:21.312Z,13.60
2022-11-17T15:48:52.743Z,13.50
2022-11-17T15:51:27.295Z,13.40
2022-11-17T15:54:00.935Z,13.40
2022-11-17T15:56:32.653Z,13.40
2022-11-17T15:59:05.383Z,13.40
2022-11-17T16:01:36.521Z,13.30
2022-11-17T16:04:08.553Z,13.20
2022-11-17T16:06:43.048Z,13.10
2022-11-17T16:09:14.101Z,13.00
2022-11-17T16:11:44.191Z,13.00
2022-11-17T16:14:15.190Z,13.00
2022-11-17T16:16:48.140Z,13.00
2022-11-17T16:19:19.323Z,12.80
2022-11-17T16:21:52.242Z,13.20
2022-11-17T16:24:22.365Z,13.20
2022-11-17T16:26:52.535Z,13.10
2022-11-17T16:29:22.704Z,13.00
2022-11-17T16:31:52.926Z,13.00
2022-11-17T16:34:22.985Z,12.90
2022-11-17T16:36:55.869Z,12.80
2022-11-17T16:39:26.222Z,13.00
2022-11-17T16:41:56.636Z,13.10
2022-11-17T16:44:26.860Z,13.10
2022-11-17T16:46:58.061Z,12.90
2022-11-17T16:49:27.876Z,12.90
2022-11-17T16:52:00.858Z,12.90
2022-11-17T16:54:31.237Z,12.90
2022-11-17T16:57:01.508Z,12.80
2022-11-17T16:59:31.611Z,12.80
2022-11-17T17:02:01.686Z,12.80
2022-11-17T17:04:33.032Z,12.70
2022-11-17T17:07:05.953Z,12.70
2022-11-17T17:09:37.416Z,12.70
2022-11-17T17:12:10.751Z,12.80
2022-11-17T17:14:40.725Z,12.80
2022-11-17T17:17:10.936Z,12.70
2022-11-17T17:19:41.263Z,12.70
2022-11-17T17:22:14.089Z,12.70
2022-11-17T17:24:44.314Z,12.70
2022-11-17T17:27:14.417Z,12.70
2022-11-17T17:29:44.478Z,12.70
2022-11-17T17:32:14.762Z,12.80
2022-11-17T17:34:44.882Z,12.70
2022-11-17T17:37:18.419Z,12.50
2022-11-17T17:39:55.151Z,12.60
2022-11-17T17:42:25.533Z,12.70
2022-11-17T17:44:55.779Z,12.80
2022-11-17T17:47:26.240Z,12.80
2022-11-17T17:49:59.481Z,12.80
2022-11-17T17:52:32.235Z,12.70
2022-11-17T17:55:02.410Z,12.70
2022-11-17T17:57:34.061Z,12.60
2022-11-17T18:00:04.342Z,12.70
2022-11-17T18:02:34.770Z,12.80
2022-11-17T18:05:04.907Z,12.70
2022-11-17T18:07:38.082Z,12.80
2022-11-17T18:10:09.159Z,12.80
2022-11-17T18:12:39.369Z,12.80
2022-11-17T18:15:11.036Z,12.80
2022-11-17T18:17:41.216Z,12.70
2022-11-17T18:20:13.177Z,12.70
2022-11-17T18:22:45.856Z,12.60
2022-11-17T18:25:17.948Z,12.60
2022-11-17T18:27:48.248Z,12.50
2022-11-17T18:30:18.491Z,12.50
2022-11-17T18:32:48.624Z,12.60
2022-11-17T18:35:18.719Z,12.60
2022-11-17T18:37:51.437Z,12.50
2022-11-17T18:40:22.139Z,12.50
2022-11-17T18:42:52.766Z,12.50
2022-11-17T18:45:22.868Z,12.50
2022-11-17T18:47:53.182Z,12.40
2022-11-17T18:50:23.405Z,12.30
2022-11-17T18:52:56.257Z,12.30
2022-11-17T18:55:27.242Z,12.30
2022-11-17T18:57:58.039Z,12.30
2022-11-17T19:00:28.176Z,12.20
2022-11-17T19:02:58.651Z,12.30
2022-11-17T19:05:28.875Z,12.30
2022-11-17T19:08:01.712Z,12.30
2022-11-17T19:10:31.998Z,12.30
2022-11-17T19:13:02.239Z,12.20
2022-11-17T19:15:32.497Z,12.30
2022-11-17T19:18:02.604Z,12.30
2022-11-17T19:20:35.816Z,12.30
2022-11-17T19:23:08.706Z,12.20
2022-11-17T19:25:40.711Z,12.10
2022-11-17T19:28:15.037Z,12.00
2022-11-17T19:30:45.297Z,12.00
2022-11-17T19:33:15.588Z,12.10
2022-11-17T19:35:46.832Z,12.10
2022-11-17T19:38:19.611Z,12.10
2022-11-17T19:40:49.878Z,12.30
2022-11-17T19:43:21.942Z,12.20
2022-11-17T19:45:52.141Z,12.20
2022-11-17T19:48:22.432Z,12.20
2022-11-17T19:50:55.806Z,12.20
2022-11-17T19:53:29.539Z,12.10
2022-11-17T19:56:02.800Z,12.20
2022-11-17T19:58:33.217Z,12.00
2022-11-17T20:01:11.468Z,12.20
2022-11-17T20:03:42.383Z,12.10
2022-11-17T20:06:13.840Z,12.20
2022-11-17T20:08:48.116Z,12.10
2022-11-17T20:11:31.878Z,12.00
2022-11-17T20:14:02.033Z,12.10
2022-11-17T20:16:33.247Z,12.10
2022-11-17T20:19:04.813Z,12.10
2022-11-17T20:21:35.066Z,12.10
2022-11-17T20:24:08.363Z,12.10
2022-11-17T20:26:41.022Z,12.00
2022-11-17T20:29:11.621Z,11.90
2022-11-17T20:31:41.679Z,12.00
2022-11-17T20:34:15.544Z,12.10
2022-11-17T20:36:45.623Z,12.00
2022-11-17T20:39:18.916Z,12.10
2022-11-17T20:41:49.218Z,12.00
2022-11-17T20:44:28.303Z,12.00
2022-11-17T20:46:58.987Z,12.00
2022-11-17T20:49:29.282Z,11.80
2022-11-17T20:51:59.449Z,11.80
2022-11-17T20:54:32.167Z,11.70
2022-11-17T20:57:02.300Z,11.80
2022-11-17T20:59:32.398Z,12.00
2022-11-17T21:02:02.544Z,11.90
2022-11-17T21:04:32.575Z,13.30
2022-11-17T21:07:02.819Z,11.80
2022-11-17T21:09:35.662Z,11.80
2022-11-17T21:12:05.935Z,11.80
2022-11-17T21:14:36.128Z,11.70
2022-11-17T21:19:56.742Z,11.80
2022-11-17T21:22:26.781Z,11.70
2022-11-17T21:24:59.533Z,11.70
2022-11-17T21:27:29.826Z,11.70
2022-11-17T21:30:00.117Z,11.80
2022-11-17T21:32:30.425Z,11.90
2022-11-17T21:35:01.415Z,12.00
2022-11-17T21:37:31.514Z,12.00
2022-11-17T21:40:04.396Z,12.00
2022-11-17T21:42:36.111Z,12.00
2022-11-17T21:45:06.594Z,11.90
2022-11-17T21:47:36.822Z,11.90
2022-11-17T21:50:07.499Z,11.80
2022-11-17T21:52:37.713Z,11.90
2022-11-17T21:55:11.863Z,11.90
2022-11-17T21:57:42.083Z,11.90
2022-11-17T22:00:13.644Z,11.90
2022-11-17T22:02:43.884Z,11.90
2022-11-17T22:05:14.088Z,11.90
2022-11-17T22:07:44.372Z,11.80
2022-11-17T22:10:17.294Z,11.80
2022-11-17T22:12:47.381Z,11.70
2022-11-17T22:15:17.589Z,11.60
2022-11-17T22:17:48.768Z,11.60
2022-11-17T22:20:19.091Z,11.70
2022-11-17T22:22:51.396Z,11.80
2022-11-17T22:25:44.185Z,11.90
2022-11-17T22:28:15.164Z,11.80
2022-11-17T22:30:45.383Z,11.80
2022-11-17T22:33:15.570Z,11.90
2022-11-17T22:35:45.655Z,11.90
2022-11-17T22:38:16.617Z,11.90
2022-11-17T22:40:49.358Z,12.00
2022-11-17T22:43:19.397Z,12.00
2022-11-17T22:45:49.417Z,11.90
2022-11-17T22:48:19.651Z,11.80
2022-11-17T22:50:49.819Z,11.90
2022-11-17T22:53:19.910Z,12.00
2022-11-17T22:55:52.868Z,11.90
2022-11-17T22:58:23.291Z,12.00
2022-11-17T23:00:53.521Z,12.00
2022-11-17T23:03:23.574Z,12.00
2022-11-17T23:05:53.829Z,11.90
2022-11-17T23:08:23.912Z,11.90
2022-11-17T23:11:29.521Z,11.80
2022-11-17T23:13:52.250Z,11.90
2022-11-17T23:16:22.680Z,11.90
2022-11-17T23:18:55.567Z,11.70
2022-11-17T23:21:26.641Z,11.70
2022-11-17T23:23:57.495Z,11.70
2022-11-17T23:26:30.385Z,11.80
2022-11-17T23:29:01.011Z,11.80
2022-11-17T23:31:31.186Z,11.80
2022-11-17T23:34:01.354Z,11.90
2022-11-17T23:36:31.521Z,11.90
2022-11-17T23:39:01.594Z,11.80
2022-11-17T23:41:34.556Z,11.80
2022-11-17T23:44:04.814Z,11.90
2022-11-17T23:46:35.480Z,11.90
2022-11-17T23:49:05.953Z,12.00
2022-11-17T23:51:36.514Z,11.90
2022-11-17T23:54:06.592Z,11.90
2022-11-17T23:56:39.391Z,12.00
2022-11-17T23:59:10.580Z,11.90
